sensor_id;sensor_type;location;lat;lon;timestamp;pressure;altitude;pressure_sealevel;temperature;humidity
3206;BME280;1615;53.602;11.418;2023-01-30T00:01:28;100463.97;;;5.61;100.00
3206;BME280;1615;53.602;11.418;2023-01-30T00:03:54;100507.88;;;5.90;100.00
3206;BME280;1615;53.602;11.418;2023-01-30T00:06:20;100502.16;;;5.91;100.00
3206;BME280;1615;53.602;11.418;2023-01-30T00:08:46;100495.63;;;5.97;100.00
3206;BME280;1615;53.602;11.418;2023-01-30T00:11:13;100497.28;;;5.98;100.00
3206;BME280;1615;53.602;11.418;2023-01-30T00:13:39;100489.94;;;6.04;100.00
3206;BME280;1615;53.602;11.418;2023-01-30T00:16:05;100462.75;;;6.04;100.00
3206;BME280;1615;53.602;11.418;2023-01-30T00:18:31;100486.94;;;6.15;100.00
3206;BME280;1615;53.602;11.418;2023-01-30T00:20:58;100504.66;;;6.33;100.00
3206;BME280;1615;53.602;11.418;2023-01-30T00:23:27;100479.34;;;6.27;100.00
3206;BME280;1615;53.602;11.418;2023-01-30T00:25:52;100472.53;;;6.20;100.00
3206;BME280;1615;53.602;11.418;2023-01-30T00:28:18;100484.50;;;6.34;100.00
3206;BME280;1615;53.602;11.418;2023-01-30T00:30:43;100390.38;;;5.93;100.00
3206;BME280;1615;53.602;11.418;2023-01-30T00:33:10;100376.78;;;5.98;100.00
3206;BME280;1615;53.602;11.418;2023-01-30T00:35:36;100465.72;;;6.42;100.00
3206;BME280;1615;53.602;11.418;2023-01-30T00:38:01;100430.34;;;6.37;100.00
3206;BME280;1615;53.602;11.418;2023-01-30T00:40:27;100430.34;;;6.37;100.00
3206;BME280;1615;53.602;11.418;2023-01-30T00:42:54;100426.00;;;6.21;100.00
3206;BME280;1615;53.602;11.418;2023-01-30T00:45:40;100303.84;;;5.45;100.00
3206;BME280;1615;53.602;11.418;2023-01-30T00:48:24;100405.03;;;6.27;100.00
3206;BME280;1615;53.602;11.418;2023-01-30T00:50:50;100401.22;;;6.33;100.00
3206;BME280;1615;53.602;11.418;2023-01-30T00:53:15;100413.47;;;6.30;100.00
3206;BME280;1615;53.602;11.418;2023-01-30T00:55:41;100406.09;;;6.46;100.00
3206;BME280;1615;53.602;11.418;2023-01-30T00:58:08;100400.66;;;6.56;100.00
3206;BME280;1615;53.602;11.418;2023-01-30T01:00:33;100388.09;;;6.55;100.00
3206;BME280;1615;53.602;11.418;2023-01-30T01:02:59;100328.31;;;6.20;100.00
3206;BME280;1615;53.602;11.418;2023-01-30T01:05:25;100388.06;;;6.65;100.00
3206;BME280;1615;53.602;11.418;2023-01-30T01:07:50;100375.03;;;6.57;100.00
3206;BME280;1615;53.602;11.418;2023-01-30T01:10:16;100368.00;;;6.46;100.00
3206;BME280;1615;53.602;11.418;2023-01-30T01:12:42;100365.78;;;6.58;100.00
3206;BME280;1615;53.602;11.418;2023-01-30T01:15:10;100253.00;;;5.85;100.00
3206;BME280;1615;53.602;11.418;2023-01-30T01:17:36;100348.59;;;6.62;100.00
3206;BME280;1615;53.602;11.418;2023-01-30T01:20:01;100350.59;;;6.37;100.00
3206;BME280;1615;53.602;11.418;2023-01-30T01:22:27;100354.91;;;6.43;100.00
3206;BME280;1615;53.602;11.418;2023-01-30T01:24:53;100356.00;;;6.52;100.00
3206;BME280;1615;53.602;11.418;2023-01-30T01:27:18;100333.13;;;6.48;100.00
3206;BME280;1615;53.602;11.418;2023-01-30T01:29:43;100328.22;;;6.45;100.00
3206;BME280;1615;53.602;11.418;2023-01-30T01:32:09;100338.03;;;6.51;100.00
3206;BME280;1615;53.602;11.418;2023-01-30T01:34:34;100317.31;;;6.50;100.00
3206;BME280;1615;53.602;11.418;2023-01-30T01:37:00;100339.66;;;6.52;100.00
3206;BME280;1615;53.602;11.418;2023-01-30T01:39:25;100316.75;;;6.58;100.00
3206;BME280;1615;53.602;11.418;2023-01-30T01:42:10;100329.53;;;6.62;100.00
3206;BME280;1615;53.602;11.418;2023-01-30T01:48:03;100281.41;;;6.48;100.00
3206;BME280;1615;53.602;11.418;2023-01-30T01:50:39;100305.88;;;6.58;100.00
3206;BME280;1615;53.602;11.418;2023-01-30T01:53:07;100285.72;;;6.59;100.00
3206;BME280;1615;53.602;11.418;2023-01-30T01:55:35;100265.06;;;6.48;100.00
3206;BME280;1615;53.602;11.418;2023-01-30T01:58:14;100278.13;;;6.56;100.00
3206;BME280;1615;53.602;11.418;2023-01-30T02:00:40;100153.41;;;5.94;100.00
3206;BME280;1615;53.602;11.418;2023-01-30T02:03:10;100258.44;;;6.69;100.00
3206;BME280;1615;53.602;11.418;2023-01-30T02:05:41;100273.59;;;6.85;100.00
3206;BME280;1615;53.602;11.418;2023-01-30T02:08:16;100258.94;;;6.76;100.00
3206;BME280;1615;53.602;11.418;2023-01-30T02:13:25;100252.44;;;6.72;100.00
3206;BME280;1615;53.602;11.418;2023-01-30T02:15:52;100238.22;;;6.80;100.00
3206;BME280;1615;53.602;11.418;2023-01-30T02:18:17;100223.00;;;6.74;100.00
3206;BME280;1615;53.602;11.418;2023-01-30T02:23:58;100238.44;;;6.88;100.00
3206;BME280;1615;53.602;11.418;2023-01-30T02:34:54;100184.22;;;6.87;100.00
3206;BME280;1615;53.602;11.418;2023-01-30T02:37:31;100183.72;;;6.80;100.00
3206;BME280;1615;53.602;11.418;2023-01-30T02:40:11;100188.53;;;6.93;100.00
3206;BME280;1615;53.602;11.418;2023-01-30T02:48:55;100154.63;;;7.09;100.00
3206;BME280;1615;53.602;11.418;2023-01-30T02:51:28;100147.00;;;7.11;100.00
3206;BME280;1615;53.602;11.418;2023-01-30T02:53:55;100140.00;;;7.00;100.00
3206;BME280;1615;53.602;11.418;2023-01-30T02:56:20;100146.25;;;7.00;100.00
3206;BME280;1615;53.602;11.418;2023-01-30T02:58:48;100139.50;;;6.93;100.00
3206;BME280;1615;53.602;11.418;2023-01-30T03:01:41;100137.88;;;6.92;100.00
3206;BME280;1615;53.602;11.418;2023-01-30T03:04:12;100133.25;;;6.92;100.00
3206;BME280;1615;53.602;11.418;2023-01-30T03:07:19;100122.63;;;6.91;100.00
3206;BME280;1615;53.602;11.418;2023-01-30T03:10:03;100119.31;;;6.99;100.00
3206;BME280;1615;53.602;11.418;2023-01-30T03:15:10;100114.75;;;7.18;100.00
3206;BME280;1615;53.602;11.418;2023-01-30T03:17:39;100113.69;;;7.14;100.00
3206;BME280;1615;53.602;11.418;2023-01-30T03:20:08;100008.63;;;6.74;100.00
3206;BME280;1615;53.602;11.418;2023-01-30T03:22:34;100053.41;;;6.92;100.00
3206;BME280;1615;53.602;11.418;2023-01-30T03:24:59;100103.53;;;7.24;100.00
3206;BME280;1615;53.602;11.418;2023-01-30T03:27:25;100026.31;;;6.77;100.00
3206;BME280;1615;53.602;11.418;2023-01-30T03:29:50;100090.50;;;7.16;100.00
3206;BME280;1615;53.602;11.418;2023-01-30T03:32:16;100019.84;;;6.73;100.00
3206;BME280;1615;53.602;11.418;2023-01-30T03:34:41;100083.63;;;7.24;100.00
3206;BME280;1615;53.602;11.418;2023-01-30T03:37:06;100088.09;;;7.15;100.00
3206;BME280;1615;53.602;11.418;2023-01-30T03:39:32;100081.41;;;7.31;100.00
3206;BME280;1615;53.602;11.418;2023-01-30T03:41:58;100071.50;;;7.35;100.00
3206;BME280;1615;53.602;11.418;2023-01-30T03:44:23;100070.44;;;7.36;100.00
3206;BME280;1615;53.602;11.418;2023-01-30T03:46:49;100065.31;;;7.29;100.00
3206;BME280;1615;53.602;11.418;2023-01-30T03:49:14;100056.31;;;7.29;100.00
3206;BME280;1615;53.602;11.418;2023-01-30T03:51:39;100061.19;;;7.32;100.00
3206;BME280;1615;53.602;11.418;2023-01-30T03:54:05;100073.66;;;7.38;100.00
3206;BME280;1615;53.602;11.418;2023-01-30T03:56:30;100059.44;;;7.41;100.00
3206;BME280;1615;53.602;11.418;2023-01-30T03:58:56;100057.81;;;7.40;100.00
3206;BME280;1615;53.602;11.418;2023-01-30T04:01:21;100053.03;;;7.32;100.00
3206;BME280;1615;53.602;11.418;2023-01-30T04:03:47;100051.09;;;7.32;100.00
3206;BME280;1615;53.602;11.418;2023-01-30T04:06:12;100028.81;;;7.49;100.00
3206;BME280;1615;53.602;11.418;2023-01-30T04:08:37;100025.59;;;7.47;100.00
3206;BME280;1615;53.602;11.418;2023-01-30T04:11:03;100019.53;;;7.50;100.00
3206;BME280;1615;53.602;11.418;2023-01-30T04:13:28;100015.25;;;7.44;100.00
3206;BME280;1615;53.602;11.418;2023-01-30T04:16:13;100036.19;;;7.25;100.00
3206;BME280;1615;53.602;11.418;2023-01-30T04:18:39;100009.78;;;7.44;100.00
3206;BME280;1615;53.602;11.418;2023-01-30T04:21:04;100013.03;;;7.46;100.00
3206;BME280;1615;53.602;11.418;2023-01-30T04:23:29;100005.41;;;7.48;100.00
3206;BME280;1615;53.602;11.418;2023-01-30T04:25:55;100019.97;;;7.57;100.00
3206;BME280;1615;53.602;11.418;2023-01-30T04:28:20;100005.84;;;7.55;100.00
3206;BME280;1615;53.602;11.418;2023-01-30T04:30:45;100005.28;;;7.58;100.00
3206;BME280;1615;53.602;11.418;2023-01-30T04:33:10;100017.19;;;7.62;100.00
3206;BME280;1615;53.602;11.418;2023-01-30T04:35:36;99998.34;;;7.65;100.00
3206;BME280;1615;53.602;11.418;2023-01-30T04:38:01;99995.53;;;7.70;100.00
3206;BME280;1615;53.602;11.418;2023-01-30T04:40:26;100000.13;;;7.75;100.00
3206;BME280;1615;53.602;11.418;2023-01-30T04:42:53;99985.28;;;7.62;100.00
3206;BME280;1615;53.602;11.418;2023-01-30T04:45:18;99996.13;;;7.67;100.00
3206;BME280;1615;53.602;11.418;2023-01-30T04:47:43;100001.53;;;7.72;100.00
3206;BME280;1615;53.602;11.418;2023-01-30T04:50:09;99960.28;;;7.37;100.00
3206;BME280;1615;53.602;11.418;2023-01-30T04:52:34;100022.66;;;7.62;100.00
3206;BME280;1615;53.602;11.418;2023-01-30T04:55:00;100026.31;;;7.76;100.00
3206;BME280;1615;53.602;11.418;2023-01-30T04:57:25;100014.75;;;7.84;100.00
3206;BME280;1615;53.602;11.418;2023-01-30T04:59:51;100020.44;;;7.87;100.00
3206;BME280;1615;53.602;11.418;2023-01-30T05:02:16;99941.56;;;7.49;100.00
3206;BME280;1615;53.602;11.418;2023-01-30T05:04:41;100019.53;;;7.92;100.00
3206;BME280;1615;53.602;11.418;2023-01-30T05:07:07;100003.84;;;7.84;100.00
3206;BME280;1615;53.602;11.418;2023-01-30T05:09:32;99970.97;;;7.70;100.00
3206;BME280;1615;53.602;11.418;2023-01-30T05:11:57;100007.88;;;7.86;100.00
3206;BME280;1615;53.602;11.418;2023-01-30T05:14:23;100000.66;;;7.95;100.00
3206;BME280;1615;53.602;11.418;2023-01-30T05:16:48;100006.31;;;7.99;100.00
3206;BME280;1615;53.602;11.418;2023-01-30T05:19:13;100004.13;;;8.01;100.00
3206;BME280;1615;53.602;11.418;2023-01-30T05:21:38;99874.78;;;7.28;100.00
3206;BME280;1615;53.602;11.418;2023-01-30T05:24:04;99972.19;;;8.01;100.00
3206;BME280;1615;53.602;11.418;2023-01-30T05:26:29;99969.44;;;7.83;100.00
3206;BME280;1615;53.602;11.418;2023-01-30T05:28:56;99983.91;;;8.02;100.00
3206;BME280;1615;53.602;11.418;2023-01-30T05:31:22;99968.13;;;7.99;100.00
3206;BME280;1615;53.602;11.418;2023-01-30T05:33:49;99891.31;;;7.55;100.00
3206;BME280;1615;53.602;11.418;2023-01-30T05:36:18;99981.69;;;8.04;100.00
3206;BME280;1615;53.602;11.418;2023-01-30T05:38:44;99831.91;;;7.15;100.00
3206;BME280;1615;53.602;11.418;2023-01-30T05:41:11;99875.75;;;7.37;100.00
3206;BME280;1615;53.602;11.418;2023-01-30T05:43:37;99964.31;;;8.00;100.00
3206;BME280;1615;53.602;11.418;2023-01-30T05:46:04;99896.69;;;7.41;100.00
3206;BME280;1615;53.602;11.418;2023-01-30T05:48:31;99885.91;;;7.31;100.00
3206;BME280;1615;53.602;11.418;2023-01-30T05:50:57;99976.22;;;7.85;100.00
3206;BME280;1615;53.602;11.418;2023-01-30T05:53:26;99975.59;;;7.93;100.00
3206;BME280;1615;53.602;11.418;2023-01-30T05:56:05;99988.94;;;7.95;100.00
3206;BME280;1615;53.602;11.418;2023-01-30T05:58:31;100001.00;;;7.89;100.00
3206;BME280;1615;53.602;11.418;2023-01-30T06:01:01;99991.97;;;7.93;100.00
3206;BME280;1615;53.602;11.418;2023-01-30T06:03:27;99976.44;;;7.70;100.00
3206;BME280;1615;53.602;11.418;2023-01-30T06:05:53;99990.56;;;7.77;100.00
3206;BME280;1615;53.602;11.418;2023-01-30T06:08:18;100003.72;;;7.70;100.00
3206;BME280;1615;53.602;11.418;2023-01-30T06:10:44;100001.88;;;7.66;100.00
3206;BME280;1615;53.602;11.418;2023-01-30T06:13:09;99999.59;;;7.73;100.00
3206;BME280;1615;53.602;11.418;2023-01-30T06:15:37;100004.41;;;7.81;100.00
3206;BME280;1615;53.602;11.418;2023-01-30T06:18:03;100001.97;;;7.79;100.00
3206;BME280;1615;53.602;11.418;2023-01-30T06:20:28;100011.56;;;7.77;100.00
3206;BME280;1615;53.602;11.418;2023-01-30T06:22:54;100008.03;;;7.76;100.00
3206;BME280;1615;53.602;11.418;2023-01-30T06:25:19;100010.75;;;7.76;100.00
3206;BME280;1615;53.602;11.418;2023-01-30T06:27:45;99895.34;;;6.97;100.00
3206;BME280;1615;53.602;11.418;2023-01-30T06:30:10;99982.41;;;7.54;100.00
3206;BME280;1615;53.602;11.418;2023-01-30T06:32:36;99989.91;;;7.62;100.00
3206;BME280;1615;53.602;11.418;2023-01-30T06:35:02;99988.53;;;7.64;100.00
3206;BME280;1615;53.602;11.418;2023-01-30T06:37:27;100004.97;;;7.78;100.00
3206;BME280;1615;53.602;11.418;2023-01-30T06:39:52;100000.84;;;7.62;100.00
3206;BME280;1615;53.602;11.418;2023-01-30T06:42:18;99982.13;;;7.55;100.00
3206;BME280;1615;53.602;11.418;2023-01-30T06:44:43;100003.41;;;7.53;100.00
3206;BME280;1615;53.602;11.418;2023-01-30T06:47:08;100005.91;;;7.50;100.00
3206;BME280;1615;53.602;11.418;2023-01-30T06:49:33;100006.66;;;7.55;100.00
3206;BME280;1615;53.602;11.418;2023-01-30T06:52:01;100011.22;;;7.60;100.00
3206;BME280;1615;53.602;11.418;2023-01-30T06:54:27;100016.69;;;7.60;100.00
3206;BME280;1615;53.602;11.418;2023-01-30T06:56:52;100015.44;;;7.71;100.00
3206;BME280;1615;53.602;11.418;2023-01-30T06:59:18;99988.84;;;7.63;100.00
3206;BME280;1615;53.602;11.418;2023-01-30T07:01:43;100010.16;;;7.79;100.00
3206;BME280;1615;53.602;11.418;2023-01-30T07:04:08;100015.53;;;7.84;100.00
3206;BME280;1615;53.602;11.418;2023-01-30T07:06:34;99993.63;;;7.71;100.00
3206;BME280;1615;53.602;11.418;2023-01-30T07:08:59;100013.56;;;7.90;100.00
3206;BME280;1615;53.602;11.418;2023-01-30T07:11:25;100019.47;;;7.97;100.00
3206;BME280;1615;53.602;11.418;2023-01-30T07:13:50;100009.94;;;7.94;100.00
3206;BME280;1615;53.602;11.418;2023-01-30T07:16:16;99950.19;;;7.56;100.00
3206;BME280;1615;53.602;11.418;2023-01-30T07:18:42;99916.34;;;7.20;100.00
3206;BME280;1615;53.602;11.418;2023-01-30T07:21:10;100009.50;;;7.87;100.00
3206;BME280;1615;53.602;11.418;2023-01-30T07:23:35;99952.25;;;7.45;100.00
3206;BME280;1615;53.602;11.418;2023-01-30T07:26:04;100002.19;;;7.83;100.00
3206;BME280;1615;53.602;11.418;2023-01-30T07:28:30;100005.59;;;7.75;100.00
3206;BME280;1615;53.602;11.418;2023-01-30T07:30:59;99939.63;;;7.31;100.00
3206;BME280;1615;53.602;11.418;2023-01-30T07:33:25;99977.41;;;7.61;100.00
3206;BME280;1615;53.602;11.418;2023-01-30T07:35:50;100012.66;;;7.76;100.00
3206;BME280;1615;53.602;11.418;2023-01-30T07:38:15;100004.91;;;7.83;100.00
3206;BME280;1615;53.602;11.418;2023-01-30T07:40:41;100011.69;;;7.85;100.00
3206;BME280;1615;53.602;11.418;2023-01-30T07:43:10;99988.19;;;7.71;100.00
3206;BME280;1615;53.602;11.418;2023-01-30T07:45:46;100020.19;;;8.02;100.00
3206;BME280;1615;53.602;11.418;2023-01-30T07:48:15;100023.53;;;7.99;100.00
3206;BME280;1615;53.602;11.418;2023-01-30T07:50:40;100008.97;;;8.04;100.00
3206;BME280;1615;53.602;11.418;2023-01-30T07:53:08;99983.63;;;7.85;100.00
3206;BME280;1615;53.602;11.418;2023-01-30T07:55:34;99994.75;;;8.07;100.00
3206;BME280;1615;53.602;11.418;2023-01-30T07:58:00;100013.25;;;8.10;100.00
3206;BME280;1615;53.602;11.418;2023-01-30T08:00:25;99976.44;;;7.89;100.00
3206;BME280;1615;53.602;11.418;2023-01-30T08:02:51;100012.75;;;8.08;100.00
3206;BME280;1615;53.602;11.418;2023-01-30T08:05:17;99979.50;;;7.87;100.00
3206;BME280;1615;53.602;11.418;2023-01-30T08:07:42;100007.81;;;8.10;100.00
3206;BME280;1615;53.602;11.418;2023-01-30T08:10:08;99914.09;;;7.45;100.00
3206;BME280;1615;53.602;11.418;2023-01-30T08:12:34;100013.88;;;8.07;100.00
3206;BME280;1615;53.602;11.418;2023-01-30T08:14:59;99994.84;;;8.02;100.00
3206;BME280;1615;53.602;11.418;2023-01-30T08:17:24;100014.22;;;8.00;100.00
3206;BME280;1615;53.602;11.418;2023-01-30T08:19:50;100005.84;;;8.34;100.00
3206;BME280;1615;53.602;11.418;2023-01-30T08:22:15;100000.22;;;8.44;100.00
3206;BME280;1615;53.602;11.418;2023-01-30T08:24:40;100000.50;;;8.42;100.00
3206;BME280;1615;53.602;11.418;2023-01-30T08:27:06;99855.50;;;7.43;100.00
3206;BME280;1615;53.602;11.418;2023-01-30T08:29:31;99978.25;;;8.35;100.00
3206;BME280;1615;53.602;11.418;2023-01-30T08:31:58;99985.84;;;8.20;100.00
3206;BME280;1615;53.602;11.418;2023-01-30T08:34:23;99999.88;;;8.32;100.00
3206;BME280;1615;53.602;11.418;2023-01-30T08:36:49;100005.09;;;8.28;100.00
3206;BME280;1615;53.602;11.418;2023-01-30T08:39:14;99995.94;;;8.19;100.00
3206;BME280;1615;53.602;11.418;2023-01-30T08:41:42;99990.25;;;8.16;100.00
3206;BME280;1615;53.602;11.418;2023-01-30T08:44:11;99923.06;;;7.64;100.00
3206;BME280;1615;53.602;11.418;2023-01-30T08:46:37;99996.09;;;8.09;100.00
3206;BME280;1615;53.602;11.418;2023-01-30T08:49:04;100008.63;;;8.10;100.00
3206;BME280;1615;53.602;11.418;2023-01-30T08:51:30;99964.97;;;7.92;100.00
3206;BME280;1615;53.602;11.418;2023-01-30T08:53:58;100017.03;;;8.14;100.00
3206;BME280;1615;53.602;11.418;2023-01-30T08:56:23;99986.94;;;8.00;100.00
3206;BME280;1615;53.602;11.418;2023-01-30T08:58:49;99994.56;;;8.22;100.00
3206;BME280;1615;53.602;11.418;2023-01-30T09:01:14;100005.56;;;8.35;100.00
3206;BME280;1615;53.602;11.418;2023-01-30T09:03:40;100001.50;;;8.33;100.00
3206;BME280;1615;53.602;11.418;2023-01-30T09:06:06;99992.59;;;8.41;100.00
3206;BME280;1615;53.602;11.418;2023-01-30T09:08:32;99951.81;;;8.12;100.00
3206;BME280;1615;53.602;11.418;2023-01-30T09:10:59;99991.16;;;8.30;100.00
3206;BME280;1615;53.602;11.418;2023-01-30T09:13:25;99890.59;;;7.68;100.00
3206;BME280;1615;53.602;11.418;2023-01-30T09:15:50;99967.78;;;8.24;100.00
3206;BME280;1615;53.602;11.418;2023-01-30T09:18:16;99968.13;;;8.36;100.00
3206;BME280;1615;53.602;11.418;2023-01-30T09:20:41;99969.72;;;8.37;100.00
3206;BME280;1615;53.602;11.418;2023-01-30T09:23:06;99955.38;;;8.31;100.00
3206;BME280;1615;53.602;11.418;2023-01-30T09:25:32;99964.00;;;8.52;100.00
3206;BME280;1615;53.602;11.418;2023-01-30T09:27:57;99966.34;;;8.45;100.00
3206;BME280;1615;53.602;11.418;2023-01-30T09:30:24;99953.91;;;8.52;100.00
3206;BME280;1615;53.602;11.418;2023-01-30T09:32:49;99915.91;;;8.24;100.00
3206;BME280;1615;53.602;11.418;2023-01-30T09:35:14;99954.72;;;8.53;100.00
3206;BME280;1615;53.602;11.418;2023-01-30T09:37:51;99966.81;;;8.79;100.00
3206;BME280;1615;53.602;11.418;2023-01-30T09:40:20;99970.06;;;8.81;100.00
3206;BME280;1615;53.602;11.418;2023-01-30T09:42:59;99966.44;;;8.85;100.00
3206;BME280;1615;53.602;11.418;2023-01-30T09:45:41;99971.69;;;8.82;100.00
3206;BME280;1615;53.602;11.418;2023-01-30T09:48:20;99973.47;;;8.73;100.00
3206;BME280;1615;53.602;11.418;2023-01-30T09:56:24;99975.09;;;8.74;100.00
3206;BME280;1615;53.602;11.418;2023-01-30T09:58:58;99983.63;;;8.72;100.00
3206;BME280;1615;53.602;11.418;2023-01-30T10:01:30;99968.47;;;8.48;100.00
3206;BME280;1615;53.602;11.418;2023-01-30T10:06:58;99960.00;;;8.63;100.00
3206;BME280;1615;53.602;11.418;2023-01-30T10:09:32;99949.16;;;8.58;100.00
3206;BME280;1615;53.602;11.418;2023-01-30T10:12:27;99942.88;;;8.44;100.00
3206;BME280;1615;53.602;11.418;2023-01-30T10:15:16;99938.84;;;8.55;100.00
3206;BME280;1615;53.602;11.418;2023-01-30T10:21:00;99934.84;;;8.79;100.00
3206;BME280;1615;53.602;11.418;2023-01-30T10:26:16;99924.94;;;8.83;100.00
3206;BME280;1615;53.602;11.418;2023-01-30T10:31:21;99927.78;;;8.92;100.00
3206;BME280;1615;53.602;11.418;2023-01-30T10:34:00;99938.53;;;9.02;100.00
3206;BME280;1615;53.602;11.418;2023-01-30T10:36:51;99927.47;;;9.07;100.00
3206;BME280;1615;53.602;11.418;2023-01-30T10:44:31;99944.47;;;9.04;100.00
3206;BME280;1615;53.602;11.418;2023-01-30T10:47:27;99947.59;;;8.84;100.00
3206;BME280;1615;53.602;11.418;2023-01-30T10:50:04;99946.16;;;8.73;100.00
3206;BME280;1615;53.602;11.418;2023-01-30T10:52:48;99940.66;;;8.59;100.00
3206;BME280;1615;53.602;11.418;2023-01-30T10:58:11;99912.91;;;8.39;100.00
3206;BME280;1615;53.602;11.418;2023-01-30T11:00:45;99919.50;;;8.38;100.00
3206;BME280;1615;53.602;11.418;2023-01-30T11:06:05;99870.91;;;8.03;100.00
3206;BME280;1615;53.602;11.418;2023-01-30T11:08:33;99928.88;;;8.32;100.00
3206;BME280;1615;53.602;11.418;2023-01-30T11:11:00;99908.81;;;8.23;100.00
3206;BME280;1615;53.602;11.418;2023-01-30T11:13:28;99903.41;;;8.18;100.00
3206;BME280;1615;53.602;11.418;2023-01-30T11:15:59;99876.00;;;8.09;100.00
3206;BME280;1615;53.602;11.418;2023-01-30T11:18:28;99887.56;;;8.20;100.00
3206;BME280;1615;53.602;11.418;2023-01-30T11:21:04;99883.72;;;8.21;100.00
3206;BME280;1615;53.602;11.418;2023-01-30T11:23:33;99894.13;;;8.19;100.00
3206;BME280;1615;53.602;11.418;2023-01-30T11:26:00;99863.19;;;7.73;100.00
3206;BME280;1615;53.602;11.418;2023-01-30T11:28:26;99927.72;;;7.82;100.00
3206;BME280;1615;53.602;11.418;2023-01-30T11:30:56;99852.81;;;7.19;100.00
3206;BME280;1615;53.602;11.418;2023-01-30T11:33:30;99908.84;;;7.49;100.00
3206;BME280;1615;53.602;11.418;2023-01-30T11:35:58;99880.09;;;7.38;100.00
3206;BME280;1615;53.602;11.418;2023-01-30T11:38:24;99897.38;;;7.52;100.00
3206;BME280;1615;53.602;11.418;2023-01-30T11:41:02;99916.13;;;7.53;100.00
3206;BME280;1615;53.602;11.418;2023-01-30T11:43:28;99909.50;;;7.41;100.00
3206;BME280;1615;53.602;11.418;2023-01-30T11:45:54;99814.97;;;6.76;100.00
3206;BME280;1615;53.602;11.418;2023-01-30T11:48:25;99857.22;;;6.50;100.00
3206;BME280;1615;53.602;11.418;2023-01-30T11:50:56;99935.66;;;7.00;100.00
3206;BME280;1615;53.602;11.418;2023-01-30T11:53:44;99942.31;;;6.89;100.00
3206;BME280;1615;53.602;11.418;2023-01-30T11:56:20;99952.22;;;6.80;100.00
3206;BME280;1615;53.602;11.418;2023-01-30T11:58:54;99938.34;;;6.76;100.00
3206;BME280;1615;53.602;11.418;2023-01-30T12:01:25;99771.56;;;5.62;100.00
3206;BME280;1615;53.602;11.418;2023-01-30T12:03:53;99924.50;;;6.73;100.00
3206;BME280;1615;53.602;11.418;2023-01-30T12:06:24;99911.47;;;6.70;100.00
3206;BME280;1615;53.602;11.418;2023-01-30T12:08:53;99906.41;;;6.82;100.00
3206;BME280;1615;53.602;11.418;2023-01-30T12:14:18;99896.13;;;7.02;100.00
3206;BME280;1615;53.602;11.418;2023-01-30T12:19:34;99905.34;;;7.25;100.00
3206;BME280;1615;53.602;11.418;2023-01-30T12:25:00;99908.97;;;7.39;100.00
3206;BME280;1615;53.602;11.418;2023-01-30T12:27:51;99903.97;;;7.46;100.00
3206;BME280;1615;53.602;11.418;2023-01-30T12:30:53;99911.72;;;7.39;100.00
3206;BME280;1615;53.602;11.418;2023-01-30T12:33:12;99914.00;;;7.32;100.00
3206;BME280;1615;53.602;11.418;2023-01-30T12:36:27;99911.56;;;7.30;100.00
3206;BME280;1615;53.602;11.418;2023-01-30T12:38:55;99920.31;;;7.46;100.00
3206;BME280;1615;53.602;11.418;2023-01-30T12:41:40;99923.81;;;7.51;100.00
3206;BME280;1615;53.602;11.418;2023-01-30T12:47:28;99900.38;;;7.50;100.00
3206;BME280;1615;53.602;11.418;2023-01-30T12:50:13;99908.09;;;7.62;100.00
3206;BME280;1615;53.602;11.418;2023-01-30T12:58:26;99887.84;;;7.68;100.00
3206;BME280;1615;53.602;11.418;2023-01-30T13:01:15;99895.28;;;7.81;100.00
3206;BME280;1615;53.602;11.418;2023-01-30T13:06:48;99899.22;;;8.07;100.00
3206;BME280;1615;53.602;11.418;2023-01-30T13:17:19;99903.69;;;8.35;100.00
3206;BME280;1615;53.602;11.418;2023-01-30T13:22:44;99913.00;;;8.34;100.00
3206;BME280;1615;53.602;11.418;2023-01-30T13:25:41;99917.34;;;8.35;100.00
3206;BME280;1615;53.602;11.418;2023-01-30T13:28:17;99923.31;;;8.37;100.00
3206;BME280;1615;53.602;11.418;2023-01-30T13:30:46;99863.84;;;8.02;100.00
3206;BME280;1615;53.602;11.418;2023-01-30T13:33:32;99914.69;;;8.30;100.00
3206;BME280;1615;53.602;11.418;2023-01-30T13:38:35;99943.06;;;8.47;100.00
3206;BME280;1615;53.602;11.418;2023-01-30T13:41:04;99952.09;;;8.48;100.00
3206;BME280;1615;53.602;11.418;2023-01-30T13:43:39;99948.91;;;8.41;100.00
3206;BME280;1615;53.602;11.418;2023-01-30T13:46:08;99956.78;;;8.29;100.00
3206;BME280;1615;53.602;11.418;2023-01-30T13:48:44;99953.88;;;8.39;100.00
3206;BME280;1615;53.602;11.418;2023-01-30T13:54:20;99942.25;;;8.47;100.00
3206;BME280;1615;53.602;11.418;2023-01-30T13:57:14;99960.53;;;8.65;100.00
3206;BME280;1615;53.602;11.418;2023-01-30T14:02:33;99959.16;;;8.81;100.00
3206;BME280;1615;53.602;11.418;2023-01-30T14:04:58;99954.25;;;8.78;100.00
3206;BME280;1615;53.602;11.418;2023-01-30T14:07:32;99947.66;;;8.65;100.00
3206;BME280;1615;53.602;11.418;2023-01-30T14:12:44;99974.91;;;8.84;100.00
3206;BME280;1615;53.602;11.418;2023-01-30T14:20:47;99985.44;;;8.77;100.00
3206;BME280;1615;53.602;11.418;2023-01-30T14:23:21;99980.56;;;8.74;100.00
3206;BME280;1615;53.602;11.418;2023-01-30T14:25:51;99987.06;;;8.78;100.00
3206;BME280;1615;53.602;11.418;2023-01-30T14:38:38;99977.41;;;7.98;100.00
3206;BME280;1615;53.602;11.418;2023-01-30T14:49:10;100043.06;;;8.06;100.00
3206;BME280;1615;53.602;11.418;2023-01-30T14:51:44;100043.22;;;8.15;100.00
3206;BME280;1615;53.602;11.418;2023-01-30T14:57:15;100038.78;;;8.19;100.00
3206;BME280;1615;53.602;11.418;2023-01-30T15:00:17;100058.50;;;8.16;100.00
3206;BME280;1615;53.602;11.418;2023-01-30T15:02:53;100050.06;;;7.94;100.00
3206;BME280;1615;53.602;11.418;2023-01-30T15:05:27;100082.88;;;7.89;100.00
3206;BME280;1615;53.602;11.418;2023-01-30T15:08:18;100080.81;;;7.81;100.00
3206;BME280;1615;53.602;11.418;2023-01-30T15:13:27;100095.06;;;7.96;100.00
3206;BME280;1615;53.602;11.418;2023-01-30T15:24:30;100116.09;;;7.96;100.00
3206;BME280;1615;53.602;11.418;2023-01-30T15:27:21;100118.16;;;8.04;100.00
3206;BME280;1615;53.602;11.418;2023-01-30T15:30:24;100139.44;;;8.07;100.00
3206;BME280;1615;53.602;11.418;2023-01-30T15:35:40;100163.22;;;8.01;100.00